logo tempoitalia

Diretta Meteo Karlovy Vary, Repubblica Cecamartedì 17 maggio ore 05:00

Mappa
Sereno 15 °C Molto Nuvoloso 24 Ore: T.min 7 T.max 23
Ponente Ovest Km/h 14.8 Punto di rugiada: 12 °C Umidità: 82% Visibilità: 10 Km
Il sole sorge alle: 05:16 Il sole tramonta alle: 20:52
17 Maggio 2022 05:00 tempo osservato: Molto Nuvoloso Molto Nuvoloso 15 82 1019 vento: Nord O 14.8
17 Maggio 2022 04:00 tempo osservato: Molto Nuvoloso Molto Nuvoloso 15 87 1018 vento: Nord O 14.8
17 Maggio 2022 03:00 tempo osservato: Pioggia Pioggia 16 82 1018 vento: Nord O 11.1
17 Maggio 2022 02:00 tempo osservato: Sereno Sereno 16 82 1019 vento: Nord O 9.3
17 Maggio 2022 01:00 tempo osservato: Sereno Sereno 16 82 1019 vento: Nord O 11.1
17 Maggio 2022 00:00 tempo osservato: Poco Nuvoloso Poco Nuvoloso 16 82 1018 vento: Nord O 13
16 Maggio 2022 23:00 tempo osservato: Nuvoloso Nuvoloso 17 72 1019 vento: Nord O/SO 11.1
16 Maggio 2022 22:00 tempo osservato: Sereno Sereno 17 67 1018 vento: Nord N 5.5
16 Maggio 2022 21:00 tempo osservato: Sereno Sereno 16 72 1018 vento: Nord N 1.8
16 Maggio 2022 20:30 tempo osservato: Sereno Sereno 18 67 1018 vento: Nord N 0
16 Maggio 2022 20:00 tempo osservato: Sereno Sereno 18 63 1018 vento: Nord N 3.7
16 Maggio 2022 19:30 tempo osservato: Sereno Sereno 18 67 1017 vento: Nord N 3.7
16 Maggio 2022 19:00 tempo osservato: Sereno Sereno 19 55 1017 vento: Nord N 1.8
16 Maggio 2022 18:30 tempo osservato: Sereno Sereno 19 55 1018 vento: Nord N 1.8
16 Maggio 2022 18:00 tempo osservato: Sereno Sereno 20 52 1018 vento: Nord N 3.7
16 Maggio 2022 17:30 tempo osservato: Sereno Sereno 20 52 1018 vento: Nord O 7.4
16 Maggio 2022 17:00 tempo osservato: Sereno Sereno 20 52 1018 vento: Nord O/NO 11.1
16 Maggio 2022 16:30 tempo osservato: Sereno Sereno 21 46 1018 vento: Nord O/NO 20.3
16 Maggio 2022 16:00 tempo osservato: Sereno Sereno 21 46 1018 vento: Nord O/NO 14.8
16 Maggio 2022 15:30 tempo osservato: Sereno Sereno 23 31 1018 vento: Nord O/SO 9.3
16 Maggio 2022 15:00 tempo osservato: Sereno Sereno 22 40 1019 vento: Nord N 5.5
16 Maggio 2022 14:30 tempo osservato: Sereno Sereno 22 40 1019 vento: Nord O 9.3
16 Maggio 2022 14:00 tempo osservato: Sereno Sereno 23 38 1019 vento: Nord S/SO 13
16 Maggio 2022 13:30 tempo osservato: Sereno Sereno 22 37 1019 vento: Nord S 7.4
16 Maggio 2022 13:00 tempo osservato: Sereno Sereno 22 40 1019 vento: Nord S/SE 9.3
16 Maggio 2022 12:30 tempo osservato: Sereno Sereno 22 40 1019 vento: Nord S/SO 13
16 Maggio 2022 12:00 tempo osservato: Sereno Sereno 22 40 1019 vento: Nord S/SE 9.3
16 Maggio 2022 11:30 tempo osservato: Sereno Sereno 21 43 1019 vento: Nord N 5.5
16 Maggio 2022 11:00 tempo osservato: Sereno Sereno 21 43 1019 vento: Nord N 5.5
16 Maggio 2022 10:30 tempo osservato: Sereno Sereno 20 45 1019 vento: Nord S/SE 9.3
16 Maggio 2022 10:00 tempo osservato: Sereno Sereno 19 45 1020 vento: Nord S/SE 11.1
16 Maggio 2022 09:30 tempo osservato: Sereno Sereno 18 45 1020 vento: Nord S/SE 9.3
16 Maggio 2022 09:00 tempo osservato: Sereno Sereno 18 48 1020 vento: Nord N 5.5
16 Maggio 2022 08:30 tempo osservato: Sereno Sereno 16 55 1020 vento: Nord N 3.7
16 Maggio 2022 08:00 tempo osservato: Sereno Sereno 15 54 1020 vento: Nord N 5.5
16 Maggio 2022 07:00 tempo osservato: Sereno Sereno 11 71 1019 vento: Nord N 1.8
16 Maggio 2022 06:00 tempo osservato: Sereno Sereno 7 87 1019 vento: Nord N 3.7